This is the latest recevied weather packets stored in our database for station/object WC4PEM-10. If no packets are shown the sender has not sent any weather packets the latest 1 day(s).
| Time | Temp. | Humidity | Pressure | Rain* | Wind** | Luminosity | Snow |
|---|---|---|---|---|---|---|---|
| 1777990769 | 25.56° C | 70% | 1015.6 hPa | 0 mm | 4.47 m/s, 131° | - | - |
| 1777990588 | 25.56° C | 70% | 1015.6 hPa | 0 mm | 4.47 m/s, 131° | - | - |
| 1777990407 | 25° C | 72% | 1015.5 hPa | 0 mm | 4.92 m/s, 108° | - | - |
| 1777990288 | 25° C | 72% | 1015.5 hPa | 0 mm | 4.92 m/s, 108° | - | - |
| 1777990185 | 25° C | 73% | 1015.5 hPa | 0 mm | 5.36 m/s, 83° | - | - |
| 1777990104 | 25° C | 73% | 1015.5 hPa | 0 mm | 5.36 m/s, 83° | - | - |
| 1777989988 | 25° C | 73% | 1015.5 hPa | 0 mm | 5.36 m/s, 83° | - | - |
| 1777989902 | 25° C | 73% | 1015.6 hPa | 0 mm | 5.81 m/s, 84° | - | - |
| 1777989688 | 25° C | 73% | 1015.6 hPa | 0 mm | 5.81 m/s, 84° | - | - |
| 1777989388 | 24.44° C | 75% | 1015.7 hPa | 0 mm | 5.81 m/s, 93° | - | - |
| 1777989237 | 25° C | 74% | 1015.7 hPa | 0 mm | 5.36 m/s, 131° | - | - |
| 1777989145 | 25° C | 74% | 1015.7 hPa | 0 mm | 5.36 m/s, 131° | - | - |
| 1777989088 | 25° C | 74% | 1015.7 hPa | 0 mm | 5.36 m/s, 131° | - | - |
| 1777988861 | 24.44° C | 74% | 1015.7 hPa | 0 mm | 5.36 m/s, 90° | - | - |
| 1777988788 | 24.44° C | 75% | 1015.7 hPa | 0 mm | 5.36 m/s, 117° | - | - |
| 1777988704 | 24.44° C | 74% | 1015.7 hPa | 0 mm | 5.36 m/s, 90° | - | - |
| 1777988488 | 24.44° C | 74% | 1015.7 hPa | 0 mm | 5.36 m/s, 90° | - | - |
| 1777988421 | 24.44° C | 75% | 1015.7 hPa | 0 mm | 4.92 m/s, 71° | - | - |
| 1777988188 | 24.44° C | 75% | 1015.7 hPa | 0 mm | 4.92 m/s, 71° | - | - |
| 1777988110 | 24.44° C | 75% | 1015.5 hPa | 0 mm | 5.36 m/s, 90° | - | - |
| 1777987888 | 24.44° C | 75% | 1015.5 hPa | 0 mm | 5.36 m/s, 90° | - | - |
| 1777987588 | 23.89° C | 76% | 1015.5 hPa | 0 mm | 4.92 m/s, 80° | - | - |
| 1777987301 | 22.78° C | 80% | 1015.6 hPa | 0 mm | 4.92 m/s, 105° | - | - |
| 1777987288 | 23.89° C | 78% | 1015.5 hPa | 0 mm | 4.92 m/s, 102° | - | - |
| 1777987283 | 23.33° C | 79% | 1015.6 hPa | 0 mm | 5.36 m/s, 105° | - | - |
* Rain latest hour (hover to see other rain measurements)
** Current wind speed in m/s (hover to see current wind gust speed)